createdAt,value
2022-09-16T00:01:34.362Z,100.00
2022-09-16T00:04:01.106Z,100.00
2022-09-16T00:06:29.750Z,100.00
2022-09-16T00:08:58.199Z,100.00
2022-09-16T00:11:24.971Z,100.00
2022-09-16T00:13:51.682Z,100.00
2022-09-16T00:16:22.578Z,100.00
2022-09-16T00:18:49.434Z,100.00
2022-09-16T00:21:16.054Z,100.00
2022-09-16T00:23:42.640Z,100.00
2022-09-16T00:26:09.259Z,100.00
2022-09-16T00:28:35.907Z,100.00
2022-09-16T00:31:03.362Z,100.00
2022-09-16T00:33:30.062Z,100.00
2022-09-16T00:36:13.654Z,100.00
2022-09-16T00:38:40.991Z,100.00
2022-09-16T00:41:08.614Z,100.00
2022-09-16T00:43:56.113Z,100.00
2022-09-16T00:46:26.796Z,100.00
2022-09-16T00:48:54.119Z,100.00
2022-09-16T00:51:21.598Z,100.00
2022-09-16T00:53:57.033Z,100.00
2022-09-16T00:56:26.538Z,100.00
2022-09-16T00:59:03.403Z,100.00
2022-09-16T01:01:31.262Z,100.00
2022-09-16T01:04:03.985Z,100.00
2022-09-16T01:06:32.353Z,100.00
2022-09-16T01:08:59.978Z,100.00
2022-09-16T01:11:27.021Z,100.00
2022-09-16T01:13:53.893Z,100.00
2022-09-16T01:16:26.098Z,100.00
2022-09-16T01:19:31.351Z,100.00
2022-09-16T01:22:29.081Z,100.00
2022-09-16T01:25:20.887Z,100.00
2022-09-16T01:28:14.342Z,100.00
2022-09-16T01:30:51.625Z,100.00
2022-09-16T01:33:18.300Z,100.00
2022-09-16T01:36:06.381Z,100.00
2022-09-16T01:38:48.619Z,100.00
2022-09-16T01:41:42.284Z,100.00
2022-09-16T01:44:34.351Z,100.00
2022-09-16T01:47:12.548Z,100.00
2022-09-16T01:49:58.016Z,100.00
2022-09-16T01:52:41.024Z,100.00
2022-09-16T01:55:13.976Z,100.00
2022-09-16T01:57:53.047Z,100.00
2022-09-16T02:00:20.428Z,100.00
2022-09-16T02:03:01.467Z,100.00
2022-09-16T02:05:34.771Z,100.00
2022-09-16T02:08:07.955Z,100.00
2022-09-16T02:10:43.737Z,100.00
2022-09-16T02:13:20.013Z,100.00
2022-09-16T02:15:49.819Z,100.00
2022-09-16T02:18:22.624Z,100.00
2022-09-16T02:20:52.985Z,100.00
2022-09-16T02:23:24.604Z,100.00
2022-09-16T02:25:54.632Z,100.00
2022-09-16T02:28:28.149Z,100.00
2022-09-16T02:30:58.667Z,100.00
2022-09-16T02:33:33.428Z,100.00
2022-09-16T02:36:02.813Z,100.00
2022-09-16T02:38:38.907Z,100.00
2022-09-16T02:41:06.253Z,100.00
2022-09-16T02:43:32.984Z,100.00
2022-09-16T02:46:08.651Z,100.00
2022-09-16T02:48:44.767Z,100.00
2022-09-16T02:51:31.791Z,100.00
2022-09-16T02:54:11.369Z,100.00
2022-09-16T02:56:40.619Z,100.00
2022-09-16T02:59:10.270Z,100.00
2022-09-16T03:01:41.808Z,100.00
2022-09-16T03:04:10.583Z,100.00
2022-09-16T03:06:37.244Z,100.00
2022-09-16T03:09:08.308Z,100.00
2022-09-16T03:11:36.011Z,100.00
2022-09-16T03:14:37.722Z,100.00
2022-09-16T03:17:39.469Z,100.00
2022-09-16T03:20:34.848Z,100.00
2022-09-16T03:23:31.993Z,100.00
2022-09-16T03:26:26.729Z,100.00
2022-09-16T03:29:15.816Z,100.00
2022-09-16T03:31:57.971Z,100.00
2022-09-16T03:34:48.705Z,100.00
2022-09-16T03:37:19.554Z,100.00
2022-09-16T03:39:57.767Z,100.00
2022-09-16T03:42:24.795Z,100.00
2022-09-16T03:44:51.922Z,100.00
2022-09-16T03:47:18.479Z,100.00
2022-09-16T03:49:45.061Z,100.00
2022-09-16T03:52:11.829Z,100.00
2022-09-16T03:54:38.973Z,100.00
2022-09-16T03:57:06.140Z,100.00
2022-09-16T03:59:33.074Z,100.00
2022-09-16T04:01:59.826Z,100.00
2022-09-16T04:04:26.538Z,100.00
2022-09-16T04:06:53.260Z,100.00
2022-09-16T04:09:19.929Z,100.00
2022-09-16T04:11:46.589Z,100.00
2022-09-16T04:14:13.406Z,100.00
2022-09-16T04:16:44.380Z,100.00
2022-09-16T04:19:13.831Z,100.00
2022-09-16T04:21:41.643Z,100.00
2022-09-16T04:24:12.911Z,100.00
2022-09-16T04:26:40.124Z,100.00
2022-09-16T04:29:06.734Z,100.00
2022-09-16T04:31:33.335Z,100.00
2022-09-16T04:34:02.556Z,100.00
2022-09-16T04:36:29.144Z,100.00
2022-09-16T04:38:55.826Z,100.00
2022-09-16T04:41:26.341Z,100.00
2022-09-16T04:43:58.035Z,100.00
2022-09-16T04:46:26.807Z,100.00
2022-09-16T04:48:54.856Z,100.00
2022-09-16T04:51:23.283Z,100.00
2022-09-16T04:53:50.281Z,100.00
2022-09-16T04:56:20.474Z,100.00
2022-09-16T04:58:49.679Z,100.00
2022-09-16T05:01:18.979Z,100.00
2022-09-16T05:03:47.622Z,100.00
2022-09-16T05:06:20.831Z,100.00
2022-09-16T05:08:49.161Z,100.00
2022-09-16T05:11:18.812Z,100.00
2022-09-16T05:13:46.160Z,100.00
2022-09-16T05:16:15.617Z,100.00
2022-09-16T05:18:44.564Z,100.00
2022-09-16T05:21:13.656Z,100.00
2022-09-16T05:23:45.938Z,100.00
2022-09-16T05:26:17.707Z,100.00
2022-09-16T05:28:44.602Z,100.00
2022-09-16T05:31:14.449Z,100.00
2022-09-16T05:33:43.614Z,100.00
2022-09-16T05:36:13.615Z,100.00
2022-09-16T05:38:40.464Z,100.00
2022-09-16T05:41:07.558Z,100.00
2022-09-16T05:43:35.422Z,100.00
2022-09-16T05:46:02.910Z,100.00
2022-09-16T05:48:30.719Z,100.00
2022-09-16T05:50:59.727Z,100.00
2022-09-16T05:53:28.088Z,100.00
2022-09-16T05:56:05.537Z,100.00
2022-09-16T05:58:33.607Z,100.00
2022-09-16T06:01:01.782Z,100.00
2022-09-16T06:03:29.233Z,100.00
2022-09-16T06:06:19.690Z,100.00
2022-09-16T06:08:46.403Z,100.00
2022-09-16T06:11:13.658Z,100.00
2022-09-16T06:13:40.514Z,100.00
2022-09-16T06:16:09.161Z,100.00
2022-09-16T06:18:37.219Z,100.00
2022-09-16T06:21:06.783Z,100.00
2022-09-16T06:23:33.941Z,100.00
2022-09-16T06:26:01.738Z,100.00
2022-09-16T06:28:28.556Z,100.00
2022-09-16T06:31:07.244Z,100.00
2022-09-16T06:33:36.297Z,100.00
2022-09-16T06:36:05.244Z,100.00
2022-09-16T06:38:31.953Z,100.00
2022-09-16T06:41:00.690Z,100.00
2022-09-16T06:43:28.085Z,100.00
2022-09-16T06:45:58.366Z,100.00
2022-09-16T06:48:27.050Z,100.00
2022-09-16T06:51:03.462Z,100.00
2022-09-16T06:53:30.435Z,100.00
2022-09-16T06:56:01.922Z,100.00
2022-09-16T06:58:30.134Z,100.00
2022-09-16T07:00:56.857Z,100.00
2022-09-16T07:03:23.633Z,100.00
2022-09-16T07:05:57.943Z,100.00
2022-09-16T07:08:25.180Z,100.00
2022-09-16T07:11:00.651Z,100.00
2022-09-16T07:13:27.870Z,100.00
2022-09-16T07:16:12.402Z,100.00
2022-09-16T07:18:39.734Z,100.00
2022-09-16T07:21:10.523Z,100.00
2022-09-16T07:23:38.546Z,100.00
2022-09-16T07:26:07.876Z,100.00
2022-09-16T07:28:35.264Z,100.00
2022-09-16T07:31:08.493Z,100.00
2022-09-16T07:33:38.247Z,100.00
2022-09-16T07:36:06.316Z,100.00
2022-09-16T07:38:33.543Z,100.00
2022-09-16T07:41:09.791Z,100.00
2022-09-16T07:43:36.303Z,100.00
2022-09-16T07:46:03.614Z,100.00
2022-09-16T07:48:34.929Z,100.00
2022-09-16T07:51:06.312Z,100.00
2022-09-16T07:53:33.865Z,100.00
2022-09-16T07:56:06.469Z,100.00
2022-09-16T07:58:33.425Z,100.00
2022-09-16T08:01:04.580Z,100.00
2022-09-16T08:03:34.248Z,100.00
2022-09-16T08:06:03.489Z,100.00
2022-09-16T08:08:31.276Z,100.00
2022-09-16T08:10:59.404Z,100.00
2022-09-16T08:13:29.154Z,100.00
2022-09-16T08:15:59.874Z,100.00
2022-09-16T08:18:26.447Z,100.00
2022-09-16T08:20:53.051Z,100.00
2022-09-16T08:23:20.209Z,100.00
2022-09-16T08:25:47.204Z,100.00
2022-09-16T08:28:15.526Z,100.00
2022-09-16T08:30:42.988Z,100.00
2022-09-16T08:33:10.456Z,100.00
2022-09-16T08:35:37.025Z,100.00
2022-09-16T08:38:03.838Z,100.00
2022-09-16T08:40:36.965Z,100.00
2022-09-16T08:43:14.103Z,100.00
2022-09-16T08:46:01.048Z,100.00
2022-09-16T08:48:46.249Z,100.00
2022-09-16T08:51:18.756Z,100.00
2022-09-16T08:53:49.108Z,100.00
2022-09-16T08:56:20.814Z,100.00
2022-09-16T08:58:53.978Z,100.00
2022-09-16T09:01:24.807Z,100.00
2022-09-16T09:03:51.720Z,100.00
2022-09-16T09:06:32.913Z,100.00
2022-09-16T09:09:16.181Z,100.00
2022-09-16T09:11:43.741Z,100.00
2022-09-16T09:14:21.431Z,100.00
2022-09-16T09:17:08.092Z,100.00
2022-09-16T09:20:07.271Z,100.00
2022-09-16T09:22:50.311Z,100.00
2022-09-16T09:25:47.433Z,100.00
2022-09-16T09:28:47.135Z,100.00
2022-09-16T09:31:29.984Z,100.00
2022-09-16T09:34:16.783Z,100.00
2022-09-16T09:36:54.928Z,100.00
2022-09-16T09:39:34.381Z,100.00
2022-09-16T09:42:21.314Z,100.00
2022-09-16T09:45:18.348Z,100.00
2022-09-16T09:47:51.483Z,100.00
2022-09-16T09:50:25.649Z,100.00
2022-09-16T09:53:02.970Z,100.00
2022-09-16T09:55:34.282Z,100.00
2022-09-16T09:58:20.434Z,100.00
2022-09-16T10:00:47.372Z,100.00
2022-09-16T10:03:17.762Z,100.00
2022-09-16T10:05:46.662Z,100.00
2022-09-16T10:08:22.853Z,100.00
2022-09-16T10:10:51.427Z,100.00
2022-09-16T10:13:19.542Z,100.00
2022-09-16T10:15:48.312Z,100.00
2022-09-16T10:18:32.487Z,100.00
2022-09-16T10:21:03.794Z,100.00
2022-09-16T10:23:31.359Z,100.00
2022-09-16T10:26:22.366Z,100.00
2022-09-16T10:29:15.008Z,100.00
2022-09-16T10:31:42.877Z,100.00
2022-09-16T10:34:21.250Z,100.00
2022-09-16T10:37:01.108Z,99.96
2022-09-16T10:39:29.576Z,99.73
2022-09-16T10:41:56.854Z,100.00
2022-09-16T10:44:28.931Z,99.59
2022-09-16T10:47:02.375Z,99.20
2022-09-16T10:49:39.039Z,98.70
2022-09-16T10:52:19.126Z,100.00
2022-09-16T10:54:46.510Z,100.00
2022-09-16T10:57:29.458Z,98.19
2022-09-16T11:00:15.114Z,98.25
2022-09-16T11:03:16.871Z,98.15
2022-09-16T11:05:44.820Z,99.35
2022-09-16T11:08:18.739Z,98.28
2022-09-16T11:10:57.018Z,97.71
2022-09-16T11:13:32.444Z,95.79
2022-09-16T11:16:23.938Z,94.25
2022-09-16T11:19:03.783Z,93.21
2022-09-16T11:21:56.001Z,94.33
2022-09-16T11:24:53.890Z,94.17
2022-09-16T11:27:40.421Z,92.59
2022-09-16T11:30:18.407Z,93.15
2022-09-16T11:32:47.165Z,92.99
2022-09-16T11:35:32.703Z,93.65
2022-09-16T11:38:16.497Z,93.69
2022-09-16T11:40:58.338Z,94.14
2022-09-16T11:43:40.110Z,92.87
2022-09-16T11:46:23.456Z,94.27
2022-09-16T11:49:05.445Z,93.75
2022-09-16T11:51:52.873Z,92.40
2022-09-16T11:54:36.118Z,90.77
2022-09-16T11:57:10.884Z,91.33
2022-09-16T11:59:59.829Z,91.12
2022-09-16T12:02:36.535Z,92.26
2022-09-16T12:05:22.804Z,93.07
2022-09-16T12:08:02.512Z,91.79
2022-09-16T12:10:49.841Z,90.79
2022-09-16T12:13:19.141Z,91.20
2022-09-16T12:15:48.661Z,88.83
2022-09-16T12:18:24.712Z,87.29
2022-09-16T12:21:08.160Z,89.75
2022-09-16T12:23:42.555Z,91.08
2022-09-16T12:26:18.341Z,91.23
2022-09-16T12:28:56.618Z,90.01
2022-09-16T12:31:38.420Z,90.07
2022-09-16T12:34:11.979Z,90.60
2022-09-16T12:36:43.926Z,89.65
2022-09-16T12:39:12.626Z,89.10
2022-09-16T12:41:59.591Z,88.36
2022-09-16T12:45:01.342Z,88.97
2022-09-16T12:47:54.721Z,89.00
2022-09-16T12:50:36.938Z,88.39
2022-09-16T12:53:34.126Z,84.54
2022-09-16T12:56:15.905Z,84.37
2022-09-16T12:59:07.158Z,84.78
2022-09-16T13:01:46.049Z,84.67
2022-09-16T13:04:26.110Z,85.52
2022-09-16T13:06:59.773Z,86.80
2022-09-16T13:09:33.086Z,89.27
2022-09-16T13:14:59.012Z,90.74
2022-09-16T13:17:32.258Z,91.13
2022-09-16T13:20:22.297Z,88.49
2022-09-16T13:23:17.398Z,87.48
2022-09-16T13:25:50.191Z,88.63
2022-09-16T13:28:32.107Z,92.30
2022-09-16T13:31:18.715Z,89.87
2022-09-16T13:33:45.246Z,91.92
2022-09-16T13:36:13.639Z,91.01
2022-09-16T13:38:43.088Z,91.99
2022-09-16T13:41:12.889Z,92.75
2022-09-16T13:43:53.041Z,94.55
2022-09-16T13:46:29.772Z,95.33
2022-09-16T13:49:04.688Z,96.49
2022-09-16T13:51:36.169Z,96.22
2022-09-16T13:54:04.628Z,97.76
2022-09-16T13:56:48.146Z,98.27
2022-09-16T13:59:15.939Z,97.11
2022-09-16T14:02:00.096Z,97.03
2022-09-16T14:04:41.722Z,95.21
2022-09-16T14:07:38.431Z,95.74
2022-09-16T14:10:25.928Z,96.44
2022-09-16T14:13:16.929Z,95.77
2022-09-16T14:15:47.787Z,95.40
2022-09-16T14:18:17.971Z,92.39
2022-09-16T14:21:06.651Z,91.84
2022-09-16T14:23:33.888Z,93.71
2022-09-16T14:26:17.616Z,95.56
2022-09-16T14:28:44.799Z,95.51
2022-09-16T14:31:18.691Z,95.87
2022-09-16T14:33:56.709Z,96.60
2022-09-16T14:36:26.820Z,97.54
2022-09-16T14:38:58.793Z,96.98
2022-09-16T14:41:44.074Z,98.71
2022-09-16T14:44:18.360Z,98.49
2022-09-16T14:47:09.054Z,98.81
2022-09-16T14:49:40.245Z,99.77
2022-09-16T14:52:18.635Z,100.00
2022-09-16T14:54:45.625Z,100.00
2022-09-16T14:57:23.084Z,100.00
2022-09-16T14:59:53.069Z,100.00
2022-09-16T15:02:36.183Z,96.98
2022-09-16T15:05:18.735Z,92.86
2022-09-16T15:08:09.653Z,92.30
2022-09-16T15:10:50.018Z,93.60
2022-09-16T15:13:20.381Z,94.74
2022-09-16T15:15:51.521Z,95.25
2022-09-16T15:18:29.381Z,93.05
2022-09-16T15:21:09.957Z,91.92
2022-09-16T15:23:39.801Z,91.34
2022-09-16T15:26:18.237Z,91.46
2022-09-16T15:29:02.305Z,88.01
2022-09-16T15:31:34.802Z,88.00
2022-09-16T15:34:05.200Z,88.10
2022-09-16T15:36:33.149Z,88.35
2022-09-16T15:38:59.749Z,87.06
2022-09-16T15:41:26.678Z,87.97
2022-09-16T15:43:53.486Z,85.52
2022-09-16T15:46:23.544Z,89.24
2022-09-16T15:49:01.932Z,88.57
2022-09-16T15:51:33.228Z,91.56
2022-09-16T15:54:22.475Z,90.46
2022-09-16T15:57:03.869Z,91.10
2022-09-16T15:59:47.971Z,93.32
2022-09-16T16:02:23.950Z,93.63
2022-09-16T16:04:50.846Z,93.80
2022-09-16T16:07:48.396Z,93.74
2022-09-16T16:10:20.928Z,93.63
2022-09-16T16:12:49.326Z,93.66
2022-09-16T16:15:18.680Z,92.67
2022-09-16T16:17:47.489Z,94.12
2022-09-16T16:20:17.047Z,93.00
2022-09-16T16:22:45.400Z,94.23
2022-09-16T16:25:13.740Z,95.55
2022-09-16T16:27:41.333Z,97.94
2022-09-16T16:30:08.748Z,99.63
2022-09-16T16:32:35.381Z,100.00
2022-09-16T16:35:02.178Z,100.00
2022-09-16T16:37:45.416Z,99.49
2022-09-16T16:40:14.211Z,99.93
2022-09-16T16:42:43.093Z,100.00
2022-09-16T16:45:11.344Z,99.87
2022-09-16T16:47:42.196Z,99.41
2022-09-16T16:50:12.622Z,99.45
2022-09-16T16:52:39.422Z,100.00
2022-09-16T16:55:06.837Z,99.38
2022-09-16T16:57:33.548Z,99.28
2022-09-16T17:00:00.125Z,98.25
2022-09-16T17:02:26.860Z,98.14
2022-09-16T17:04:53.458Z,97.13
2022-09-16T17:07:28.122Z,98.62
2022-09-16T17:09:57.114Z,98.59
2022-09-16T17:12:23.761Z,97.40
2022-09-16T17:14:50.316Z,98.23
2022-09-16T17:17:16.901Z,99.18
2022-09-16T17:19:43.479Z,99.41
2022-09-16T17:22:10.990Z,100.00
2022-09-16T17:24:37.567Z,100.00
2022-09-16T17:27:04.496Z,100.00
2022-09-16T17:29:31.193Z,100.00
2022-09-16T17:32:00.774Z,100.00
2022-09-16T17:34:27.418Z,100.00
2022-09-16T17:36:54.695Z,100.00
2022-09-16T17:39:22.730Z,100.00
2022-09-16T17:41:50.105Z,100.00
2022-09-16T17:44:17.991Z,100.00
2022-09-16T17:46:45.577Z,100.00
2022-09-16T17:49:27.458Z,100.00
2022-09-16T17:51:54.345Z,100.00
2022-09-16T17:54:22.784Z,100.00
2022-09-16T17:56:49.769Z,100.00
2022-09-16T17:59:18.890Z,100.00
2022-09-16T18:01:46.171Z,100.00
2022-09-16T18:04:13.271Z,100.00
2022-09-16T18:06:43.151Z,100.00
2022-09-16T18:09:10.743Z,100.00
2022-09-16T18:11:38.748Z,100.00
2022-09-16T18:14:07.996Z,100.00
2022-09-16T18:16:34.942Z,100.00
2022-09-16T18:19:02.707Z,100.00
2022-09-16T18:21:30.256Z,100.00
2022-09-16T18:23:59.676Z,100.00
2022-09-16T18:26:27.286Z,100.00
2022-09-16T18:29:12.374Z,100.00
2022-09-16T18:31:43.721Z,100.00
2022-09-16T18:34:11.098Z,100.00
2022-09-16T18:36:39.172Z,100.00
2022-09-16T18:39:07.679Z,100.00
2022-09-16T18:41:36.985Z,100.00
2022-09-16T18:44:07.705Z,100.00
2022-09-16T18:46:37.009Z,100.00
2022-09-16T18:49:04.913Z,100.00
2022-09-16T18:51:35.433Z,100.00
2022-09-16T18:54:05.241Z,100.00
2022-09-16T18:56:34.985Z,100.00
2022-09-16T18:59:24.026Z,100.00
2022-09-16T19:01:53.162Z,100.00
2022-09-16T19:04:24.708Z,100.00
2022-09-16T19:06:53.938Z,100.00
2022-09-16T19:09:23.541Z,100.00
2022-09-16T19:11:52.904Z,100.00
2022-09-16T19:14:22.454Z,100.00
2022-09-16T19:16:49.274Z,100.00
2022-09-16T19:19:16.508Z,100.00
2022-09-16T19:21:43.799Z,100.00
2022-09-16T19:24:16.576Z,100.00
2022-09-16T19:26:44.939Z,100.00
2022-09-16T19:29:13.149Z,100.00
2022-09-16T19:31:42.198Z,100.00
2022-09-16T19:34:09.194Z,100.00
2022-09-16T19:36:37.409Z,100.00
2022-09-16T19:39:05.676Z,100.00
2022-09-16T19:41:37.315Z,100.00
2022-09-16T19:44:07.543Z,100.00
2022-09-16T19:46:36.711Z,100.00
2022-09-16T19:49:05.306Z,100.00
2022-09-16T19:51:33.160Z,100.00
2022-09-16T19:54:00.921Z,100.00
2022-09-16T19:56:30.935Z,100.00
2022-09-16T19:58:57.575Z,100.00
2022-09-16T20:01:26.443Z,100.00
2022-09-16T20:03:53.936Z,100.00
2022-09-16T20:06:23.966Z,100.00
2022-09-16T20:08:56.934Z,100.00
2022-09-16T20:11:26.426Z,100.00
2022-09-16T20:14:00.298Z,100.00
2022-09-16T20:16:30.650Z,100.00
2022-09-16T20:18:57.551Z,100.00
2022-09-16T20:21:26.188Z,100.00
2022-09-16T20:23:54.260Z,100.00
2022-09-16T20:26:21.556Z,100.00
2022-09-16T20:28:51.378Z,100.00
2022-09-16T20:31:20.714Z,100.00
2022-09-16T20:33:48.445Z,100.00
2022-09-16T20:36:17.118Z,100.00
2022-09-16T20:38:44.481Z,100.00
2022-09-16T20:41:14.519Z,100.00
2022-09-16T20:43:41.748Z,100.00
2022-09-16T20:46:11.979Z,100.00
2022-09-16T20:48:42.590Z,100.00
2022-09-16T20:51:12.909Z,100.00
2022-09-16T20:53:41.159Z,100.00
2022-09-16T20:56:14.567Z,100.00
2022-09-16T20:58:42.514Z,100.00
2022-09-16T21:01:22.322Z,100.00
2022-09-16T21:03:54.467Z,100.00
2022-09-16T21:06:23.873Z,100.00
2022-09-16T21:09:00.012Z,100.00
2022-09-16T21:11:29.508Z,100.00
2022-09-16T21:14:01.717Z,100.00
2022-09-16T21:16:31.701Z,100.00
2022-09-16T21:19:01.230Z,100.00
2022-09-16T21:21:28.923Z,100.00
2022-09-16T21:23:57.889Z,100.00
2022-09-16T21:26:26.268Z,100.00
2022-09-16T21:28:55.764Z,100.00
2022-09-16T21:31:23.269Z,100.00
2022-09-16T21:33:51.910Z,100.00
2022-09-16T21:36:20.325Z,100.00
2022-09-16T21:38:47.639Z,100.00
2022-09-16T21:41:17.031Z,100.00
2022-09-16T21:43:48.772Z,100.00
2022-09-16T21:46:20.107Z,100.00
2022-09-16T21:48:49.394Z,100.00
2022-09-16T21:51:17.808Z,100.00
2022-09-16T21:53:45.664Z,100.00
2022-09-16T21:56:15.710Z,100.00
2022-09-16T21:58:42.650Z,100.00
2022-09-16T22:01:14.480Z,100.00
2022-09-16T22:03:43.018Z,100.00
2022-09-16T22:06:11.542Z,100.00
2022-09-16T22:08:38.368Z,100.00
2022-09-16T22:11:09.035Z,100.00
2022-09-16T22:13:36.507Z,100.00
2022-09-16T22:16:04.422Z,100.00
2022-09-16T22:18:31.322Z,100.00
2022-09-16T22:21:08.275Z,100.00
2022-09-16T22:23:37.297Z,100.00
2022-09-16T22:26:05.947Z,100.00
2022-09-16T22:28:33.768Z,100.00
2022-09-16T22:31:17.388Z,100.00
2022-09-16T22:33:45.949Z,100.00
2022-09-16T22:36:15.913Z,100.00
2022-09-16T22:38:48.255Z,100.00
2022-09-16T22:41:16.456Z,100.00
2022-09-16T22:43:45.717Z,100.00
2022-09-16T22:46:15.350Z,100.00
2022-09-16T22:48:43.212Z,100.00
2022-09-16T22:51:12.092Z,100.00
2022-09-16T22:53:39.681Z,100.00
2022-09-16T22:56:08.380Z,100.00
2022-09-16T22:58:35.330Z,100.00
2022-09-16T23:01:12.131Z,100.00
2022-09-16T23:03:39.897Z,100.00
2022-09-16T23:06:11.377Z,100.00
2022-09-16T23:08:41.874Z,100.00
2022-09-16T23:11:13.247Z,100.00
2022-09-16T23:13:42.550Z,100.00
2022-09-16T23:16:15.105Z,100.00
2022-09-16T23:18:42.876Z,100.00
2022-09-16T23:21:11.474Z,100.00
2022-09-16T23:23:40.212Z,100.00
2022-09-16T23:26:10.233Z,100.00
2022-09-16T23:28:37.215Z,100.00
2022-09-16T23:31:06.511Z,100.00
2022-09-16T23:33:33.429Z,100.00
2022-09-16T23:36:00.380Z,100.00
2022-09-16T23:38:27.931Z,100.00
2022-09-16T23:40:55.141Z,100.00
2022-09-16T23:43:22.609Z,100.00
2022-09-16T23:45:49.464Z,100.00
2022-09-16T23:48:17.743Z,100.00
2022-09-16T23:50:45.027Z,100.00
2022-09-16T23:53:12.052Z,100.00
2022-09-16T23:55:43.618Z,100.00
2022-09-16T23:58:11.399Z,100.00
